サラエボ の空港の天気 - METARとTAF

サラエボ国際空港 ( LQSA / SJJ ) - ボスニア・ヘルツェゴビナ サラエボ
飛行場実況気象(Metar)
観測時間11/21 13:00 CET (11/21 12:00 UTC)
風向・風速不定 1m/s
視程10km以上
天気現象
少しの雲 雲底高度 1010m
全天の8割程度の雲 雲底高度 1370m
気温11℃
湿度76%
気圧1014hPa
METARLQSA 211200Z VRB02KT 9999 FEW033 BKN045 11/07 Q1014 NOSIG
過去の天気等 Google飛行場航空写真 Wunderground天気予報

過去48時間のMETAR

飛行場予報(TAF)
発表時間: 11/21 12:00 CET (11/21 11:00 UTC)
予報対象時間: 21日13時 CET ~ 22日13時 CET
風向・風速不定 1m/s
視程10km以上
全天の8割程度の雲 雲底高度 1680m
22日1時 CET ~ 22日9時 CET に一時的に
視程3000m
天気現象もや
22日4時 CET から 確率 30% で
視程500m
天気現象
全天の8割程度の雲 雲底高度 30m
TAF LQSA 211100Z 2112/2212 VRB02KT 9999 BKN055 TX12/2113Z TN03/2205Z
TEMPO 2200/2208 3000 BR
PROB30 2203/2207 0500 FG BKN001